sensor_id;sensor_type;location;lat;lon;timestamp;P1;durP1;ratioP1;P2;durP2;ratioP2
9224;SDS011;4647;48.072;11.616;2024-03-08T00:01:43;40.77;;;34.00;;
9224;SDS011;4647;48.072;11.616;2024-03-08T00:04:12;45.70;;;36.43;;
9224;SDS011;4647;48.072;11.616;2024-03-08T00:06:41;39.20;;;30.53;;
9224;SDS011;4647;48.072;11.616;2024-03-08T00:09:11;41.33;;;34.37;;
9224;SDS011;4647;48.072;11.616;2024-03-08T00:11:43;40.67;;;33.17;;
9224;SDS011;4647;48.072;11.616;2024-03-08T00:14:12;43.53;;;33.63;;
9224;SDS011;4647;48.072;11.616;2024-03-08T00:16:40;41.27;;;32.13;;
9224;SDS011;4647;48.072;11.616;2024-03-08T00:19:09;34.70;;;29.13;;
9224;SDS011;4647;48.072;11.616;2024-03-08T00:21:38;31.47;;;27.37;;
9224;SDS011;4647;48.072;11.616;2024-03-08T00:24:06;30.73;;;27.43;;
9224;SDS011;4647;48.072;11.616;2024-03-08T00:26:35;36.57;;;28.23;;
9224;SDS011;4647;48.072;11.616;2024-03-08T00:29:06;34.73;;;28.00;;
9224;SDS011;4647;48.072;11.616;2024-03-08T00:31:34;31.33;;;26.73;;
9224;SDS011;4647;48.072;11.616;2024-03-08T00:34:03;33.23;;;28.17;;
9224;SDS011;4647;48.072;11.616;2024-03-08T00:36:31;40.40;;;31.80;;
9224;SDS011;4647;48.072;11.616;2024-03-08T00:39:00;40.33;;;31.83;;
9224;SDS011;4647;48.072;11.616;2024-03-08T00:41:31;36.97;;;28.60;;
9224;SDS011;4647;48.072;11.616;2024-03-08T00:43:59;37.43;;;30.30;;
9224;SDS011;4647;48.072;11.616;2024-03-08T00:46:32;33.13;;;29.03;;
9224;SDS011;4647;48.072;11.616;2024-03-08T00:49:00;34.73;;;28.70;;
9224;SDS011;4647;48.072;11.616;2024-03-08T00:51:29;37.97;;;31.20;;
9224;SDS011;4647;48.072;11.616;2024-03-08T00:53:57;32.53;;;27.27;;
9224;SDS011;4647;48.072;11.616;2024-03-08T00:56:26;35.20;;;27.87;;
9224;SDS011;4647;48.072;11.616;2024-03-08T00:58:54;31.83;;;26.27;;
9224;SDS011;4647;48.072;11.616;2024-03-08T01:01:24;31.80;;;27.10;;
9224;SDS011;4647;48.072;11.616;2024-03-08T01:03:56;30.93;;;26.73;;
9224;SDS011;4647;48.072;11.616;2024-03-08T01:06:24;31.03;;;25.83;;
9224;SDS011;4647;48.072;11.616;2024-03-08T01:08:53;31.73;;;26.50;;
9224;SDS011;4647;48.072;11.616;2024-03-08T01:11:21;37.20;;;29.10;;
9224;SDS011;4647;48.072;11.616;2024-03-08T01:13:49;31.63;;;28.20;;
9224;SDS011;4647;48.072;11.616;2024-03-08T01:16:18;32.60;;;26.80;;
9224;SDS011;4647;48.072;11.616;2024-03-08T01:18:47;40.70;;;32.87;;
9224;SDS011;4647;48.072;11.616;2024-03-08T01:21:18;29.80;;;26.23;;
9224;SDS011;4647;48.072;11.616;2024-03-08T01:23:47;32.47;;;28.13;;
9224;SDS011;4647;48.072;11.616;2024-03-08T01:26:15;32.07;;;27.70;;
9224;SDS011;4647;48.072;11.616;2024-03-08T01:28:44;31.23;;;26.23;;
9224;SDS011;4647;48.072;11.616;2024-03-08T01:31:12;38.77;;;30.93;;
9224;SDS011;4647;48.072;11.616;2024-03-08T01:33:41;44.77;;;35.10;;
9224;SDS011;4647;48.072;11.616;2024-03-08T01:36:10;37.77;;;31.73;;
9224;SDS011;4647;48.072;11.616;2024-03-08T01:38:43;35.97;;;29.70;;
9224;SDS011;4647;48.072;11.616;2024-03-08T01:41:11;40.40;;;30.90;;
9224;SDS011;4647;48.072;11.616;2024-03-08T01:43:42;38.10;;;31.17;;
9224;SDS011;4647;48.072;11.616;2024-03-08T01:46:11;36.73;;;30.50;;
9224;SDS011;4647;48.072;11.616;2024-03-08T01:48:43;39.20;;;30.33;;
9224;SDS011;4647;48.072;11.616;2024-03-08T01:51:12;31.37;;;27.93;;
9224;SDS011;4647;48.072;11.616;2024-03-08T01:53:44;32.97;;;28.57;;
9224;SDS011;4647;48.072;11.616;2024-03-08T01:56:15;35.97;;;30.00;;
9224;SDS011;4647;48.072;11.616;2024-03-08T01:58:45;32.50;;;27.53;;
9224;SDS011;4647;48.072;11.616;2024-03-08T02:01:13;36.43;;;31.20;;
9224;SDS011;4647;48.072;11.616;2024-03-08T02:03:44;35.13;;;29.10;;
9224;SDS011;4647;48.072;11.616;2024-03-08T02:06:12;34.63;;;29.00;;
9224;SDS011;4647;48.072;11.616;2024-03-08T02:08:44;39.00;;;31.50;;
9224;SDS011;4647;48.072;11.616;2024-03-08T02:11:13;36.30;;;30.60;;
9224;SDS011;4647;48.072;11.616;2024-03-08T02:13:42;36.13;;;30.20;;
9224;SDS011;4647;48.072;11.616;2024-03-08T02:16:11;34.73;;;29.03;;
9224;SDS011;4647;48.072;11.616;2024-03-08T02:18:39;38.83;;;30.20;;
9224;SDS011;4647;48.072;11.616;2024-03-08T02:21:10;39.43;;;31.53;;
9224;SDS011;4647;48.072;11.616;2024-03-08T02:23:38;42.80;;;32.43;;
9224;SDS011;4647;48.072;11.616;2024-03-08T02:26:07;38.10;;;31.73;;
9224;SDS011;4647;48.072;11.616;2024-03-08T02:28:36;33.13;;;28.20;;
9224;SDS011;4647;48.072;11.616;2024-03-08T02:31:08;38.60;;;30.47;;
9224;SDS011;4647;48.072;11.616;2024-03-08T02:33:37;36.40;;;29.37;;
9224;SDS011;4647;48.072;11.616;2024-03-08T02:36:06;41.97;;;32.80;;
9224;SDS011;4647;48.072;11.616;2024-03-08T02:38:37;37.20;;;31.03;;
9224;SDS011;4647;48.072;11.616;2024-03-08T02:41:06;39.83;;;32.23;;
9224;SDS011;4647;48.072;11.616;2024-03-08T02:43:35;39.00;;;31.03;;
9224;SDS011;4647;48.072;11.616;2024-03-08T02:46:03;43.07;;;34.60;;
9224;SDS011;4647;48.072;11.616;2024-03-08T02:48:32;43.27;;;32.70;;
9224;SDS011;4647;48.072;11.616;2024-03-08T02:51:01;42.60;;;32.40;;
9224;SDS011;4647;48.072;11.616;2024-03-08T02:53:30;38.03;;;31.07;;
9224;SDS011;4647;48.072;11.616;2024-03-08T02:56:03;35.13;;;30.47;;
9224;SDS011;4647;48.072;11.616;2024-03-08T02:58:34;41.03;;;31.50;;
9224;SDS011;4647;48.072;11.616;2024-03-08T03:01:02;39.93;;;33.13;;
9224;SDS011;4647;48.072;11.616;2024-03-08T03:03:31;44.90;;;33.97;;
9224;SDS011;4647;48.072;11.616;2024-03-08T03:05:59;37.10;;;30.23;;
9224;SDS011;4647;48.072;11.616;2024-03-08T03:08:28;42.10;;;33.50;;
9224;SDS011;4647;48.072;11.616;2024-03-08T03:10:56;40.33;;;30.87;;
9224;SDS011;4647;48.072;11.616;2024-03-08T03:13:24;37.20;;;30.20;;
9224;SDS011;4647;48.072;11.616;2024-03-08T03:15:54;50.33;;;36.60;;
9224;SDS011;4647;48.072;11.616;2024-03-08T03:18:23;38.63;;;30.47;;
9224;SDS011;4647;48.072;11.616;2024-03-08T03:20:52;45.07;;;34.63;;
9224;SDS011;4647;48.072;11.616;2024-03-08T03:23:21;36.90;;;30.93;;
9224;SDS011;4647;48.072;11.616;2024-03-08T03:25:51;35.93;;;29.73;;
9224;SDS011;4647;48.072;11.616;2024-03-08T03:28:25;41.47;;;32.23;;
9224;SDS011;4647;48.072;11.616;2024-03-08T03:30:53;38.37;;;31.03;;
9224;SDS011;4647;48.072;11.616;2024-03-08T03:33:23;40.33;;;31.67;;
9224;SDS011;4647;48.072;11.616;2024-03-08T03:35:52;42.70;;;34.70;;
9224;SDS011;4647;48.072;11.616;2024-03-08T03:38:20;37.70;;;31.10;;
9224;SDS011;4647;48.072;11.616;2024-03-08T03:40:51;35.37;;;29.73;;
9224;SDS011;4647;48.072;11.616;2024-03-08T03:43:25;40.70;;;32.73;;
9224;SDS011;4647;48.072;11.616;2024-03-08T03:45:53;37.73;;;32.03;;
9224;SDS011;4647;48.072;11.616;2024-03-08T03:48:22;39.90;;;32.60;;
9224;SDS011;4647;48.072;11.616;2024-03-08T03:50:51;45.20;;;33.90;;
9224;SDS011;4647;48.072;11.616;2024-03-08T03:53:19;41.47;;;33.53;;
9224;SDS011;4647;48.072;11.616;2024-03-08T03:55:47;40.70;;;33.10;;
9224;SDS011;4647;48.072;11.616;2024-03-08T03:58:16;41.30;;;34.03;;
9224;SDS011;4647;48.072;11.616;2024-03-08T04:00:50;41.83;;;34.10;;
9224;SDS011;4647;48.072;11.616;2024-03-08T04:03:18;50.20;;;38.47;;
9224;SDS011;4647;48.072;11.616;2024-03-08T04:05:47;42.63;;;33.90;;
9224;SDS011;4647;48.072;11.616;2024-03-08T04:08:16;43.93;;;35.87;;
9224;SDS011;4647;48.072;11.616;2024-03-08T04:10:44;41.50;;;33.03;;
9224;SDS011;4647;48.072;11.616;2024-03-08T04:13:12;48.27;;;37.07;;
9224;SDS011;4647;48.072;11.616;2024-03-08T04:15:41;51.93;;;39.20;;
9224;SDS011;4647;48.072;11.616;2024-03-08T04:18:12;41.97;;;34.37;;
9224;SDS011;4647;48.072;11.616;2024-03-08T04:20:41;54.33;;;40.67;;
9224;SDS011;4647;48.072;11.616;2024-03-08T04:23:09;54.37;;;40.60;;
9224;SDS011;4647;48.072;11.616;2024-03-08T04:25:37;55.30;;;41.20;;
9224;SDS011;4647;48.072;11.616;2024-03-08T04:28:07;46.87;;;37.63;;
9224;SDS011;4647;48.072;11.616;2024-03-08T04:30:36;46.93;;;36.90;;
9224;SDS011;4647;48.072;11.616;2024-03-08T04:33:05;45.20;;;36.90;;
9224;SDS011;4647;48.072;11.616;2024-03-08T04:35:36;48.07;;;36.63;;
9224;SDS011;4647;48.072;11.616;2024-03-08T04:38:05;50.80;;;38.67;;
9224;SDS011;4647;48.072;11.616;2024-03-08T04:40:33;46.57;;;37.27;;
9224;SDS011;4647;48.072;11.616;2024-03-08T04:43:02;40.63;;;34.20;;
9224;SDS011;4647;48.072;11.616;2024-03-08T04:45:31;45.53;;;34.57;;
9224;SDS011;4647;48.072;11.616;2024-03-08T04:47:57;43.17;;;35.67;;
9224;SDS011;4647;48.072;11.616;2024-03-08T04:50:25;48.30;;;36.23;;
9224;SDS011;4647;48.072;11.616;2024-03-08T04:52:56;49.53;;;39.17;;
9224;SDS011;4647;48.072;11.616;2024-03-08T04:55:25;49.37;;;39.13;;
9224;SDS011;4647;48.072;11.616;2024-03-08T04:57:54;52.30;;;40.20;;
9224;SDS011;4647;48.072;11.616;2024-03-08T05:00:22;48.53;;;37.77;;
9224;SDS011;4647;48.072;11.616;2024-03-08T05:02:51;41.60;;;33.67;;
9224;SDS011;4647;48.072;11.616;2024-03-08T05:05:20;39.17;;;33.83;;
9224;SDS011;4647;48.072;11.616;2024-03-08T05:07:48;60.10;;;42.43;;
9224;SDS011;4647;48.072;11.616;2024-03-08T05:10:19;55.77;;;40.67;;
9224;SDS011;4647;48.072;11.616;2024-03-08T05:12:47;49.03;;;39.00;;
9224;SDS011;4647;48.072;11.616;2024-03-08T05:15:16;44.23;;;36.13;;
9224;SDS011;4647;48.072;11.616;2024-03-08T05:17:45;40.10;;;34.23;;
9224;SDS011;4647;48.072;11.616;2024-03-08T05:20:15;41.07;;;34.20;;
9224;SDS011;4647;48.072;11.616;2024-03-08T05:22:44;43.50;;;36.10;;
9224;SDS011;4647;48.072;11.616;2024-03-08T05:25:13;50.23;;;38.00;;
9224;SDS011;4647;48.072;11.616;2024-03-08T05:27:45;46.90;;;37.53;;
9224;SDS011;4647;48.072;11.616;2024-03-08T05:30:14;51.07;;;38.77;;
9224;SDS011;4647;48.072;11.616;2024-03-08T05:32:43;42.97;;;36.73;;
9224;SDS011;4647;48.072;11.616;2024-03-08T05:35:12;47.37;;;37.90;;
9224;SDS011;4647;48.072;11.616;2024-03-08T05:37:41;45.57;;;36.67;;
9224;SDS011;4647;48.072;11.616;2024-03-08T05:40:10;49.80;;;38.87;;
9224;SDS011;4647;48.072;11.616;2024-03-08T05:42:39;48.60;;;37.47;;
9224;SDS011;4647;48.072;11.616;2024-03-08T05:45:10;47.53;;;38.23;;
9224;SDS011;4647;48.072;11.616;2024-03-08T05:47:39;53.30;;;39.00;;
9224;SDS011;4647;48.072;11.616;2024-03-08T05:50:08;47.07;;;38.37;;
9224;SDS011;4647;48.072;11.616;2024-03-08T05:52:37;47.20;;;38.43;;
9224;SDS011;4647;48.072;11.616;2024-03-08T05:55:07;51.87;;;40.60;;
9224;SDS011;4647;48.072;11.616;2024-03-08T05:57:35;50.73;;;39.40;;
9224;SDS011;4647;48.072;11.616;2024-03-08T06:00:05;50.50;;;40.37;;
9224;SDS011;4647;48.072;11.616;2024-03-08T06:02:38;45.97;;;37.60;;
9224;SDS011;4647;48.072;11.616;2024-03-08T06:05:08;43.53;;;37.23;;
9224;SDS011;4647;48.072;11.616;2024-03-08T06:07:37;43.97;;;36.10;;
9224;SDS011;4647;48.072;11.616;2024-03-08T06:10:07;47.13;;;38.07;;
9224;SDS011;4647;48.072;11.616;2024-03-08T06:12:38;44.53;;;37.33;;
9224;SDS011;4647;48.072;11.616;2024-03-08T06:15:07;43.93;;;37.67;;
9224;SDS011;4647;48.072;11.616;2024-03-08T06:17:42;43.50;;;34.83;;
9224;SDS011;4647;48.072;11.616;2024-03-08T06:20:11;43.37;;;35.57;;
9224;SDS011;4647;48.072;11.616;2024-03-08T06:22:40;41.60;;;35.13;;
9224;SDS011;4647;48.072;11.616;2024-03-08T06:25:10;44.70;;;35.53;;
9224;SDS011;4647;48.072;11.616;2024-03-08T06:27:40;44.83;;;35.73;;
9224;SDS011;4647;48.072;11.616;2024-03-08T06:30:09;41.33;;;34.03;;
9224;SDS011;4647;48.072;11.616;2024-03-08T06:32:38;40.70;;;35.23;;
9224;SDS011;4647;48.072;11.616;2024-03-08T06:35:10;38.63;;;34.13;;
9224;SDS011;4647;48.072;11.616;2024-03-08T06:37:41;42.83;;;35.03;;
9224;SDS011;4647;48.072;11.616;2024-03-08T06:40:10;41.90;;;35.03;;
9224;SDS011;4647;48.072;11.616;2024-03-08T06:42:39;37.67;;;32.37;;
9224;SDS011;4647;48.072;11.616;2024-03-08T06:45:08;39.10;;;32.00;;
9224;SDS011;4647;48.072;11.616;2024-03-08T06:47:37;37.23;;;31.60;;
9224;SDS011;4647;48.072;11.616;2024-03-08T06:50:07;39.70;;;33.23;;
9224;SDS011;4647;48.072;11.616;2024-03-08T06:52:40;36.57;;;30.90;;
9224;SDS011;4647;48.072;11.616;2024-03-08T06:55:09;35.90;;;32.00;;
9224;SDS011;4647;48.072;11.616;2024-03-08T06:57:39;32.87;;;29.27;;
9224;SDS011;4647;48.072;11.616;2024-03-08T07:00:08;39.27;;;32.67;;
9224;SDS011;4647;48.072;11.616;2024-03-08T07:02:43;41.80;;;33.20;;
9224;SDS011;4647;48.072;11.616;2024-03-08T07:05:16;37.97;;;32.00;;
9224;SDS011;4647;48.072;11.616;2024-03-08T07:07:45;33.60;;;29.70;;
9224;SDS011;4647;48.072;11.616;2024-03-08T07:10:13;35.47;;;31.03;;
9224;SDS011;4647;48.072;11.616;2024-03-08T07:12:42;34.60;;;30.80;;
9224;SDS011;4647;48.072;11.616;2024-03-08T07:15:10;34.63;;;30.83;;
9224;SDS011;4647;48.072;11.616;2024-03-08T07:17:41;34.20;;;30.37;;
9224;SDS011;4647;48.072;11.616;2024-03-08T07:20:10;33.43;;;29.90;;
9224;SDS011;4647;48.072;11.616;2024-03-08T07:22:43;33.97;;;28.90;;
9224;SDS011;4647;48.072;11.616;2024-03-08T07:25:12;34.20;;;29.83;;
9224;SDS011;4647;48.072;11.616;2024-03-08T07:27:47;36.37;;;31.27;;
9224;SDS011;4647;48.072;11.616;2024-03-08T07:30:16;36.33;;;31.17;;
9224;SDS011;4647;48.072;11.616;2024-03-08T07:32:57;33.90;;;28.30;;
9224;SDS011;4647;48.072;11.616;2024-03-08T07:35:27;35.47;;;29.87;;
9224;SDS011;4647;48.072;11.616;2024-03-08T07:37:58;34.87;;;30.10;;
9224;SDS011;4647;48.072;11.616;2024-03-08T07:40:27;39.30;;;30.70;;
9224;SDS011;4647;48.072;11.616;2024-03-08T07:42:56;34.40;;;29.63;;
9224;SDS011;4647;48.072;11.616;2024-03-08T07:45:25;35.03;;;30.20;;
9224;SDS011;4647;48.072;11.616;2024-03-08T07:47:53;31.53;;;28.03;;
9224;SDS011;4647;48.072;11.616;2024-03-08T07:50:22;37.37;;;28.27;;
9224;SDS011;4647;48.072;11.616;2024-03-08T07:52:50;32.10;;;28.47;;
9224;SDS011;4647;48.072;11.616;2024-03-08T07:55:21;33.03;;;28.63;;
9224;SDS011;4647;48.072;11.616;2024-03-08T07:57:49;31.33;;;27.90;;
9224;SDS011;4647;48.072;11.616;2024-03-08T08:00:18;32.43;;;27.93;;
9224;SDS011;4647;48.072;11.616;2024-03-08T08:02:46;30.67;;;27.47;;
9224;SDS011;4647;48.072;11.616;2024-03-08T08:05:15;30.23;;;26.73;;
9224;SDS011;4647;48.072;11.616;2024-03-08T08:07:44;29.33;;;26.30;;
9224;SDS011;4647;48.072;11.616;2024-03-08T08:10:13;31.37;;;27.63;;
9224;SDS011;4647;48.072;11.616;2024-03-08T08:12:49;28.70;;;25.53;;
9224;SDS011;4647;48.072;11.616;2024-03-08T08:15:17;30.03;;;25.67;;
9224;SDS011;4647;48.072;11.616;2024-03-08T08:17:46;30.87;;;26.80;;
9224;SDS011;4647;48.072;11.616;2024-03-08T08:20:19;27.70;;;24.73;;
9224;SDS011;4647;48.072;11.616;2024-03-08T08:22:48;28.97;;;25.83;;
9224;SDS011;4647;48.072;11.616;2024-03-08T08:25:16;29.40;;;26.13;;
9224;SDS011;4647;48.072;11.616;2024-03-08T08:27:45;28.63;;;25.57;;
9224;SDS011;4647;48.072;11.616;2024-03-08T08:30:17;28.43;;;25.43;;
9224;SDS011;4647;48.072;11.616;2024-03-08T08:32:46;29.03;;;26.03;;
9224;SDS011;4647;48.072;11.616;2024-03-08T08:35:14;27.33;;;24.33;;
9224;SDS011;4647;48.072;11.616;2024-03-08T08:37:44;29.03;;;24.67;;
9224;SDS011;4647;48.072;11.616;2024-03-08T08:40:13;29.07;;;25.50;;
9224;SDS011;4647;48.072;11.616;2024-03-08T08:42:42;28.03;;;23.80;;
9224;SDS011;4647;48.072;11.616;2024-03-08T08:45:13;27.73;;;23.33;;
9224;SDS011;4647;48.072;11.616;2024-03-08T08:47:42;29.30;;;23.03;;
9224;SDS011;4647;48.072;11.616;2024-03-08T08:50:12;26.47;;;23.57;;
9224;SDS011;4647;48.072;11.616;2024-03-08T08:52:41;28.13;;;23.47;;
9224;SDS011;4647;48.072;11.616;2024-03-08T08:55:11;28.97;;;23.57;;
9224;SDS011;4647;48.072;11.616;2024-03-08T08:57:39;25.83;;;22.47;;
9224;SDS011;4647;48.072;11.616;2024-03-08T09:00:08;28.57;;;22.03;;
9224;SDS011;4647;48.072;11.616;2024-03-08T09:02:42;25.47;;;22.70;;
9224;SDS011;4647;48.072;11.616;2024-03-08T09:05:11;26.37;;;23.57;;
9224;SDS011;4647;48.072;11.616;2024-03-08T09:07:41;24.93;;;22.30;;
9224;SDS011;4647;48.072;11.616;2024-03-08T09:10:10;26.17;;;22.57;;
9224;SDS011;4647;48.072;11.616;2024-03-08T09:12:39;24.77;;;21.83;;
9224;SDS011;4647;48.072;11.616;2024-03-08T09:15:08;25.97;;;23.13;;
9224;SDS011;4647;48.072;11.616;2024-03-08T09:17:36;25.43;;;22.53;;
9224;SDS011;4647;48.072;11.616;2024-03-08T09:20:09;24.93;;;21.13;;
9224;SDS011;4647;48.072;11.616;2024-03-08T09:22:40;26.00;;;21.70;;
9224;SDS011;4647;48.072;11.616;2024-03-08T09:25:09;28.17;;;23.73;;
9224;SDS011;4647;48.072;11.616;2024-03-08T09:27:37;24.57;;;21.13;;
9224;SDS011;4647;48.072;11.616;2024-03-08T09:30:06;27.70;;;22.37;;
9224;SDS011;4647;48.072;11.616;2024-03-08T09:32:38;24.13;;;21.53;;
9224;SDS011;4647;48.072;11.616;2024-03-08T09:35:09;23.07;;;19.67;;
9224;SDS011;4647;48.072;11.616;2024-03-08T09:37:37;22.37;;;20.00;;
9224;SDS011;4647;48.072;11.616;2024-03-08T09:40:06;23.97;;;20.97;;
9224;SDS011;4647;48.072;11.616;2024-03-08T09:42:40;23.33;;;20.63;;
9224;SDS011;4647;48.072;11.616;2024-03-08T09:45:09;22.77;;;20.27;;
9224;SDS011;4647;48.072;11.616;2024-03-08T09:47:40;26.27;;;19.87;;
9224;SDS011;4647;48.072;11.616;2024-03-08T09:50:12;22.20;;;18.93;;
9224;SDS011;4647;48.072;11.616;2024-03-08T09:52:43;25.77;;;22.63;;
9224;SDS011;4647;48.072;11.616;2024-03-08T09:55:16;25.37;;;22.60;;
9224;SDS011;4647;48.072;11.616;2024-03-08T09:57:47;27.20;;;24.23;;
9224;SDS011;4647;48.072;11.616;2024-03-08T10:00:41;28.33;;;23.97;;
9224;SDS011;4647;48.072;11.616;2024-03-08T10:03:11;27.93;;;22.80;;
9224;SDS011;4647;48.072;11.616;2024-03-08T10:05:42;27.17;;;22.83;;
9224;SDS011;4647;48.072;11.616;2024-03-08T10:08:11;25.67;;;22.97;;
9224;SDS011;4647;48.072;11.616;2024-03-08T10:10:40;27.07;;;23.80;;
9224;SDS011;4647;48.072;11.616;2024-03-08T10:13:08;29.00;;;23.30;;
9224;SDS011;4647;48.072;11.616;2024-03-08T10:15:39;25.57;;;22.80;;
9224;SDS011;4647;48.072;11.616;2024-03-08T10:18:08;27.67;;;23.77;;
9224;SDS011;4647;48.072;11.616;2024-03-08T10:20:37;25.07;;;21.83;;
9224;SDS011;4647;48.072;11.616;2024-03-08T10:23:08;25.03;;;22.13;;
9224;SDS011;4647;48.072;11.616;2024-03-08T10:25:37;27.03;;;22.40;;
9224;SDS011;4647;48.072;11.616;2024-03-08T10:28:06;25.70;;;22.23;;
9224;SDS011;4647;48.072;11.616;2024-03-08T10:30:34;25.37;;;21.30;;
9224;SDS011;4647;48.072;11.616;2024-03-08T10:33:03;22.83;;;20.43;;
9224;SDS011;4647;48.072;11.616;2024-03-08T10:35:31;24.30;;;19.17;;
9224;SDS011;4647;48.072;11.616;2024-03-08T10:38:00;21.50;;;18.97;;
9224;SDS011;4647;48.072;11.616;2024-03-08T10:40:35;25.17;;;21.43;;
9224;SDS011;4647;48.072;11.616;2024-03-08T10:43:10;23.03;;;20.50;;
9224;SDS011;4647;48.072;11.616;2024-03-08T10:45:49;22.20;;;19.93;;
9224;SDS011;4647;48.072;11.616;2024-03-08T10:48:28;22.23;;;19.80;;
9224;SDS011;4647;48.072;11.616;2024-03-08T10:51:01;21.50;;;19.23;;
9224;SDS011;4647;48.072;11.616;2024-03-08T10:53:30;21.17;;;18.60;;
9224;SDS011;4647;48.072;11.616;2024-03-08T10:56:01;28.07;;;21.13;;
9224;SDS011;4647;48.072;11.616;2024-03-08T10:58:30;21.17;;;18.83;;
9224;SDS011;4647;48.072;11.616;2024-03-08T11:00:59;21.40;;;18.87;;
9224;SDS011;4647;48.072;11.616;2024-03-08T11:06:14;23.52;;;21.13;;
9224;SDS011;4647;48.072;11.616;2024-03-08T11:08:48;26.50;;;19.90;;
9224;SDS011;4647;48.072;11.616;2024-03-08T11:11:26;21.07;;;18.60;;
9224;SDS011;4647;48.072;11.616;2024-03-08T11:13:56;26.50;;;19.00;;
9224;SDS011;4647;48.072;11.616;2024-03-08T11:19:24;22.00;;;19.60;;
9224;SDS011;4647;48.072;11.616;2024-03-08T11:21:59;21.93;;;19.40;;
9224;SDS011;4647;48.072;11.616;2024-03-08T11:24:38;21.23;;;19.13;;
9224;SDS011;4647;48.072;11.616;2024-03-08T11:27:11;21.20;;;18.37;;
9224;SDS011;4647;48.072;11.616;2024-03-08T11:29:39;22.97;;;18.30;;
9224;SDS011;4647;48.072;11.616;2024-03-08T11:32:08;21.57;;;18.13;;
9224;SDS011;4647;48.072;11.616;2024-03-08T11:34:40;21.50;;;18.93;;
9224;SDS011;4647;48.072;11.616;2024-03-08T11:37:11;22.90;;;18.97;;
9224;SDS011;4647;48.072;11.616;2024-03-08T11:39:45;20.07;;;17.97;;
9224;SDS011;4647;48.072;11.616;2024-03-08T11:42:18;22.03;;;17.30;;
9224;SDS011;4647;48.072;11.616;2024-03-08T11:44:47;24.37;;;19.50;;
9224;SDS011;4647;48.072;11.616;2024-03-08T11:47:16;21.87;;;19.50;;
9224;SDS011;4647;48.072;11.616;2024-03-08T11:49:44;24.07;;;20.33;;
9224;SDS011;4647;48.072;11.616;2024-03-08T11:52:13;23.23;;;20.23;;
9224;SDS011;4647;48.072;11.616;2024-03-08T11:54:43;21.57;;;19.27;;
9224;SDS011;4647;48.072;11.616;2024-03-08T11:57:21;23.60;;;21.10;;
9224;SDS011;4647;48.072;11.616;2024-03-08T11:59:51;24.80;;;20.80;;
9224;SDS011;4647;48.072;11.616;2024-03-08T12:02:20;23.67;;;21.17;;
9224;SDS011;4647;48.072;11.616;2024-03-08T12:04:55;23.07;;;20.67;;
9224;SDS011;4647;48.072;11.616;2024-03-08T12:07:25;22.50;;;19.57;;
9224;SDS011;4647;48.072;11.616;2024-03-08T12:12:49;26.87;;;21.07;;
9224;SDS011;4647;48.072;11.616;2024-03-08T12:15:20;24.03;;;21.53;;
9224;SDS011;4647;48.072;11.616;2024-03-08T12:17:49;23.80;;;21.20;;
9224;SDS011;4647;48.072;11.616;2024-03-08T12:20:19;24.37;;;20.27;;
9224;SDS011;4647;48.072;11.616;2024-03-08T12:22:50;23.83;;;21.30;;
9224;SDS011;4647;48.072;11.616;2024-03-08T12:25:22;27.00;;;21.37;;
9224;SDS011;4647;48.072;11.616;2024-03-08T12:27:54;24.27;;;21.67;;
9224;SDS011;4647;48.072;11.616;2024-03-08T12:30:23;25.77;;;21.70;;
9224;SDS011;4647;48.072;11.616;2024-03-08T12:32:55;23.60;;;21.10;;
9224;SDS011;4647;48.072;11.616;2024-03-08T12:35:25;23.13;;;20.37;;
9224;SDS011;4647;48.072;11.616;2024-03-08T12:37:54;24.13;;;21.53;;
9224;SDS011;4647;48.072;11.616;2024-03-08T12:40:26;23.67;;;21.20;;
9224;SDS011;4647;48.072;11.616;2024-03-08T12:42:59;25.60;;;22.40;;
9224;SDS011;4647;48.072;11.616;2024-03-08T12:45:28;21.67;;;19.37;;
9224;SDS011;4647;48.072;11.616;2024-03-08T12:47:58;21.97;;;19.63;;
9224;SDS011;4647;48.072;11.616;2024-03-08T12:50:28;25.83;;;19.37;;
9224;SDS011;4647;48.072;11.616;2024-03-08T12:52:57;21.40;;;19.03;;
9224;SDS011;4647;48.072;11.616;2024-03-08T12:55:26;23.40;;;20.50;;
9224;SDS011;4647;48.072;11.616;2024-03-08T12:57:55;23.43;;;20.63;;
9224;SDS011;4647;48.072;11.616;2024-03-08T13:00:27;21.87;;;19.27;;
9224;SDS011;4647;48.072;11.616;2024-03-08T13:02:55;21.63;;;19.33;;
9224;SDS011;4647;48.072;11.616;2024-03-08T13:05:24;23.37;;;20.83;;
9224;SDS011;4647;48.072;11.616;2024-03-08T13:07:52;23.10;;;20.60;;
9224;SDS011;4647;48.072;11.616;2024-03-08T13:10:22;25.30;;;20.23;;
9224;SDS011;4647;48.072;11.616;2024-03-08T13:12:50;21.90;;;19.60;;
9224;SDS011;4647;48.072;11.616;2024-03-08T13:15:19;22.07;;;19.87;;
9224;SDS011;4647;48.072;11.616;2024-03-08T13:17:51;21.87;;;19.67;;
9224;SDS011;4647;48.072;11.616;2024-03-08T13:20:22;21.53;;;19.23;;
9224;SDS011;4647;48.072;11.616;2024-03-08T13:22:53;22.60;;;20.20;;
9224;SDS011;4647;48.072;11.616;2024-03-08T13:25:24;21.77;;;18.17;;
9224;SDS011;4647;48.072;11.616;2024-03-08T13:27:52;20.60;;;18.37;;
9224;SDS011;4647;48.072;11.616;2024-03-08T13:30:24;21.47;;;19.17;;
9224;SDS011;4647;48.072;11.616;2024-03-08T13:32:55;20.57;;;18.27;;
9224;SDS011;4647;48.072;11.616;2024-03-08T13:35:23;20.17;;;17.90;;
9224;SDS011;4647;48.072;11.616;2024-03-08T13:37:55;20.87;;;17.77;;
9224;SDS011;4647;48.072;11.616;2024-03-08T13:40:23;20.57;;;18.47;;
9224;SDS011;4647;48.072;11.616;2024-03-08T13:42:52;20.07;;;17.73;;
9224;SDS011;4647;48.072;11.616;2024-03-08T13:45:20;19.53;;;17.50;;
9224;SDS011;4647;48.072;11.616;2024-03-08T13:47:49;18.97;;;17.07;;
9224;SDS011;4647;48.072;11.616;2024-03-08T13:50:21;19.73;;;17.60;;
9224;SDS011;4647;48.072;11.616;2024-03-08T13:52:52;18.70;;;16.73;;
9224;SDS011;4647;48.072;11.616;2024-03-08T13:55:20;17.77;;;15.90;;
9224;SDS011;4647;48.072;11.616;2024-03-08T14:07:25;16.77;;;14.70;;
9224;SDS011;4647;48.072;11.616;2024-03-08T14:09:54;17.07;;;15.27;;
9224;SDS011;4647;48.072;11.616;2024-03-08T14:12:22;18.10;;;16.27;;
9224;SDS011;4647;48.072;11.616;2024-03-08T14:14:51;16.33;;;14.60;;
9224;SDS011;4647;48.072;11.616;2024-03-08T14:17:20;18.50;;;16.53;;
9224;SDS011;4647;48.072;11.616;2024-03-08T14:19:49;18.47;;;16.47;;
9224;SDS011;4647;48.072;11.616;2024-03-08T14:22:18;18.33;;;16.33;;
9224;SDS011;4647;48.072;11.616;2024-03-08T14:24:49;18.43;;;16.27;;
9224;SDS011;4647;48.072;11.616;2024-03-08T14:27:17;16.60;;;14.80;;
9224;SDS011;4647;48.072;11.616;2024-03-08T14:29:46;20.23;;;15.73;;
9224;SDS011;4647;48.072;11.616;2024-03-08T14:32:14;17.13;;;15.33;;
9224;SDS011;4647;48.072;11.616;2024-03-08T14:34:44;19.10;;;16.30;;
9224;SDS011;4647;48.072;11.616;2024-03-08T14:37:13;17.97;;;15.83;;
9224;SDS011;4647;48.072;11.616;2024-03-08T14:39:42;17.57;;;14.83;;
9224;SDS011;4647;48.072;11.616;2024-03-08T14:42:13;17.63;;;15.90;;
9224;SDS011;4647;48.072;11.616;2024-03-08T14:44:42;19.40;;;17.43;;
9224;SDS011;4647;48.072;11.616;2024-03-08T14:47:13;18.30;;;16.50;;
9224;SDS011;4647;48.072;11.616;2024-03-08T14:49:41;19.73;;;17.73;;
9224;SDS011;4647;48.072;11.616;2024-03-08T14:52:10;18.57;;;16.77;;
9224;SDS011;4647;48.072;11.616;2024-03-08T14:54:52;20.53;;;18.47;;
9224;SDS011;4647;48.072;11.616;2024-03-08T14:57:23;21.50;;;18.50;;
9224;SDS011;4647;48.072;11.616;2024-03-08T14:59:53;18.93;;;16.87;;
9224;SDS011;4647;48.072;11.616;2024-03-08T15:02:21;20.53;;;18.53;;
9224;SDS011;4647;48.072;11.616;2024-03-08T15:04:50;21.17;;;18.90;;
9224;SDS011;4647;48.072;11.616;2024-03-08T15:07:22;20.53;;;18.33;;